createdAt,value
2022-12-31T00:01:07.218Z,2.38
2022-12-31T00:03:34.058Z,2.20
2022-12-31T00:06:00.426Z,1.80
2022-12-31T00:08:26.775Z,2.08
2022-12-31T00:10:53.128Z,2.10
2022-12-31T00:13:19.439Z,3.58
2022-12-31T00:15:45.851Z,1.75
2022-12-31T00:18:12.262Z,1.98
2022-12-31T00:20:39.183Z,1.70
2022-12-31T00:23:07.607Z,2.97
2022-12-31T00:25:35.749Z,3.20
2022-12-31T00:28:02.641Z,5.18
2022-12-31T00:30:28.966Z,2.22
2022-12-31T00:32:55.558Z,2.20
2022-12-31T00:35:21.956Z,2.70
2022-12-31T00:37:48.313Z,3.80
2022-12-31T00:40:14.741Z,2.72
2022-12-31T00:42:41.081Z,2.42
2022-12-31T00:45:07.709Z,1.65
2022-12-31T00:47:34.065Z,2.10
2022-12-31T00:50:00.358Z,2.38
2022-12-31T00:52:26.684Z,1.70
2022-12-31T00:54:52.994Z,2.67
2022-12-31T00:57:19.354Z,1.35
2022-12-31T00:59:45.688Z,3.28
2022-12-31T01:02:12.140Z,1.30
2022-12-31T01:04:38.593Z,2.38
2022-12-31T01:07:04.935Z,2.33
2022-12-31T01:09:31.308Z,1.83
2022-12-31T01:11:57.760Z,1.27
2022-12-31T01:14:24.098Z,1.27
2022-12-31T01:16:51.832Z,1.13
2022-12-31T01:19:22.787Z,1.17
2022-12-31T01:21:49.687Z,1.58
2022-12-31T01:24:16.250Z,1.27
2022-12-31T01:26:42.977Z,1.58
2022-12-31T01:29:10.894Z,1.20
2022-12-31T01:31:37.881Z,1.17
2022-12-31T01:34:04.781Z,1.25
2022-12-31T01:36:31.998Z,1.50
2022-12-31T01:38:59.483Z,1.02
2022-12-31T01:41:27.454Z,0.90
2022-12-31T01:44:01.228Z,1.02
2022-12-31T01:46:39.843Z,1.65
2022-12-31T01:49:06.166Z,0.88
2022-12-31T01:51:33.863Z,1.38
2022-12-31T01:54:01.336Z,1.20
2022-12-31T01:56:27.625Z,1.05
2022-12-31T01:58:55.199Z,1.35
2022-12-31T02:01:24.473Z,1.17
2022-12-31T02:03:51.523Z,1.13
2022-12-31T02:06:22.393Z,1.48
2022-12-31T02:08:48.843Z,1.98
2022-12-31T02:11:32.913Z,0.90
2022-12-31T02:14:01.777Z,1.42
2022-12-31T02:16:28.118Z,1.55
2022-12-31T02:19:23.278Z,3.00
2022-12-31T02:21:59.544Z,1.80
2022-12-31T02:24:37.905Z,1.20
2022-12-31T02:27:23.203Z,1.20
2022-12-31T02:29:49.528Z,3.13
2022-12-31T02:32:20.357Z,2.00
2022-12-31T02:34:50.703Z,1.35
2022-12-31T02:37:18.088Z,2.10
2022-12-31T02:39:44.624Z,2.28
2022-12-31T02:42:11.659Z,1.83
2022-12-31T02:44:39.223Z,1.35
2022-12-31T02:47:08.575Z,3.40
2022-12-31T02:49:37.986Z,1.70
2022-12-31T02:52:23.014Z,1.17
2022-12-31T02:54:55.667Z,1.10
2022-12-31T02:57:21.948Z,1.33
2022-12-31T03:00:07.107Z,1.58
2022-12-31T03:02:34.014Z,3.13
2022-12-31T03:05:01.342Z,1.45
2022-12-31T03:07:29.057Z,2.70
2022-12-31T03:09:55.740Z,2.03
2022-12-31T03:12:45.317Z,2.72
2022-12-31T03:15:21.791Z,3.15
2022-12-31T03:18:06.903Z,2.47
2022-12-31T03:20:51.968Z,1.98
2022-12-31T03:23:22.797Z,2.78
2022-12-31T03:25:49.223Z,3.13
2022-12-31T03:28:17.776Z,3.00
2022-12-31T03:30:45.233Z,2.90
2022-12-31T03:33:11.804Z,2.45
2022-12-31T03:35:39.269Z,3.42
2022-12-31T03:38:05.867Z,2.38
2022-12-31T03:40:34.768Z,3.47
2022-12-31T03:43:01.112Z,4.07
2022-12-31T03:45:27.443Z,4.03
2022-12-31T03:47:53.850Z,2.47
2022-12-31T03:50:20.428Z,3.58
2022-12-31T03:52:47.030Z,3.92
2022-12-31T03:55:13.526Z,2.67
2022-12-31T03:57:39.945Z,3.63
2022-12-31T04:00:07.079Z,3.65
2022-12-31T04:02:33.600Z,3.63
2022-12-31T04:05:00.097Z,4.20
2022-12-31T04:07:26.439Z,3.60
2022-12-31T04:09:52.763Z,3.65
2022-12-31T04:12:19.182Z,3.05
2022-12-31T04:14:45.500Z,3.90
2022-12-31T04:17:11.852Z,2.00
2022-12-31T04:19:38.210Z,5.50
2022-12-31T04:22:05.133Z,4.13
2022-12-31T04:24:31.442Z,1.98
2022-12-31T04:27:03.567Z,3.42
2022-12-31T04:29:33.571Z,2.00
2022-12-31T04:32:00.021Z,4.72
2022-12-31T04:34:26.510Z,3.65
2022-12-31T04:36:52.943Z,3.05
2022-12-31T04:39:19.319Z,5.70
2022-12-31T04:41:45.600Z,2.60
2022-12-31T04:44:12.473Z,4.07
2022-12-31T04:46:39.094Z,7.28
2022-12-31T04:49:05.479Z,3.20
2022-12-31T04:51:31.842Z,8.23
2022-12-31T04:53:58.607Z,5.38
2022-12-31T04:56:25.252Z,6.15
2022-12-31T04:58:51.632Z,4.63
2022-12-31T05:01:18.062Z,3.90
2022-12-31T05:03:44.785Z,4.72
2022-12-31T05:06:12.830Z,4.28
2022-12-31T05:08:39.187Z,3.42
2022-12-31T05:11:05.568Z,4.20
2022-12-31T05:13:33.635Z,3.38
2022-12-31T05:16:00.858Z,5.32
2022-12-31T05:18:27.225Z,4.55
2022-12-31T05:20:53.626Z,3.30
2022-12-31T05:23:20.299Z,3.92
2022-12-31T05:25:47.082Z,4.35
2022-12-31T05:28:13.938Z,3.70
2022-12-31T05:30:41.109Z,5.97
2022-12-31T05:33:07.828Z,5.85
2022-12-31T05:35:34.415Z,4.60
2022-12-31T05:38:01.065Z,3.67
2022-12-31T05:40:27.822Z,6.75
2022-12-31T05:42:54.171Z,3.15
2022-12-31T05:45:25.221Z,3.10
2022-12-31T05:47:54.913Z,4.15
2022-12-31T05:50:21.319Z,3.65
2022-12-31T05:52:55.077Z,3.58
2022-12-31T05:55:21.527Z,2.70
2022-12-31T05:57:47.886Z,4.40
2022-12-31T06:00:14.499Z,4.95
2022-12-31T06:02:41.865Z,4.13
2022-12-31T06:05:08.609Z,3.60
2022-12-31T06:07:34.981Z,4.50
2022-12-31T06:10:01.274Z,4.22
2022-12-31T06:12:27.659Z,3.75
2022-12-31T06:14:53.997Z,4.78
2022-12-31T06:17:22.329Z,2.72
2022-12-31T06:19:48.684Z,2.47
2022-12-31T06:22:15.265Z,4.13
2022-12-31T06:24:42.355Z,5.72
2022-12-31T06:27:08.647Z,4.20
2022-12-31T06:29:34.996Z,3.70
2022-12-31T06:32:01.321Z,2.92
2022-12-31T06:34:27.719Z,3.67
2022-12-31T06:36:54.029Z,5.10
2022-12-31T06:39:20.427Z,3.80
2022-12-31T06:41:46.752Z,3.35
2022-12-31T06:44:14.435Z,4.20
2022-12-31T06:46:41.009Z,2.22
2022-12-31T06:49:07.426Z,3.03
2022-12-31T06:51:33.805Z,2.03
2022-12-31T06:54:00.144Z,2.65
2022-12-31T06:56:33.892Z,3.00
2022-12-31T06:59:01.801Z,1.98
2022-12-31T07:01:43.075Z,5.03
2022-12-31T07:04:33.032Z,2.53
2022-12-31T07:07:02.395Z,3.70
2022-12-31T07:09:42.681Z,8.23
2022-12-31T07:12:27.217Z,2.63
2022-12-31T07:15:11.625Z,3.88
2022-12-31T07:20:10.340Z,4.07
2022-12-31T07:22:36.860Z,2.38
2022-12-31T07:25:03.435Z,2.50
2022-12-31T07:27:44.973Z,4.40
2022-12-31T07:30:13.464Z,2.67
2022-12-31T07:32:45.015Z,1.70
2022-12-31T07:35:28.395Z,4.32
2022-12-31T07:38:07.475Z,2.25
2022-12-31T07:40:53.324Z,2.17
2022-12-31T07:43:38.588Z,2.08
2022-12-31T07:46:25.207Z,4.05
2022-12-31T07:48:51.650Z,2.15
2022-12-31T07:51:18.140Z,3.33
2022-12-31T07:53:44.536Z,3.55
2022-12-31T07:56:10.873Z,4.22
2022-12-31T07:58:40.504Z,3.30
2022-12-31T08:01:09.650Z,6.72
2022-12-31T08:03:50.101Z,1.55
2022-12-31T08:06:19.444Z,1.52
2022-12-31T08:09:04.349Z,3.42
2022-12-31T08:11:35.085Z,2.78
2022-12-31T08:14:01.991Z,2.55
2022-12-31T08:16:28.938Z,3.53
2022-12-31T08:18:55.633Z,1.83
2022-12-31T08:21:34.568Z,2.15
2022-12-31T08:24:04.425Z,2.88
2022-12-31T08:26:57.156Z,2.33
2022-12-31T08:29:23.452Z,2.90
2022-12-31T08:31:55.922Z,4.00
2022-12-31T08:34:30.657Z,3.33
2022-12-31T08:36:57.021Z,5.10
2022-12-31T08:39:32.499Z,2.35
2022-12-31T08:42:00.200Z,3.38
2022-12-31T08:44:47.919Z,2.40
2022-12-31T08:47:20.213Z,2.25
2022-12-31T08:49:46.709Z,1.85
2022-12-31T08:52:15.141Z,5.05
2022-12-31T08:54:41.746Z,4.40
2022-12-31T08:57:26.498Z,2.80
2022-12-31T08:59:58.030Z,5.60
2022-12-31T09:02:47.917Z,5.78
2022-12-31T09:05:25.363Z,4.00
2022-12-31T09:07:57.837Z,2.63
2022-12-31T09:10:30.174Z,3.30
2022-12-31T09:13:11.981Z,4.18
2022-12-31T09:15:41.745Z,3.72
2022-12-31T09:18:09.160Z,2.20
2022-12-31T09:20:44.407Z,1.95
2022-12-31T09:23:12.281Z,3.05
2022-12-31T09:25:59.783Z,4.65
2022-12-31T09:28:44.856Z,3.17
2022-12-31T09:31:17.105Z,3.17
2022-12-31T09:33:43.486Z,2.40
2022-12-31T09:36:16.875Z,4.45
2022-12-31T09:38:52.331Z,3.88
2022-12-31T09:41:30.095Z,2.20
2022-12-31T09:44:15.514Z,3.70
2022-12-31T09:47:00.398Z,2.65
2022-12-31T09:49:45.644Z,2.00
2022-12-31T09:52:30.883Z,4.55
2022-12-31T09:55:12.431Z,2.58
2022-12-31T09:57:50.327Z,1.75
2022-12-31T10:00:22.837Z,2.83
2022-12-31T10:03:10.421Z,4.72
2022-12-31T10:05:45.808Z,3.35
2022-12-31T10:08:30.894Z,3.75
2022-12-31T10:11:20.652Z,4.10
2022-12-31T10:13:50.975Z,2.88
2022-12-31T10:16:20.398Z,2.67
2022-12-31T10:19:05.672Z,3.45
2022-12-31T10:21:34.975Z,3.38
2022-12-31T10:24:01.279Z,3.65
2022-12-31T10:26:30.610Z,2.88
2022-12-31T10:29:03.081Z,3.40
2022-12-31T10:31:47.575Z,3.55
2022-12-31T10:34:25.454Z,4.60
2022-12-31T10:36:57.864Z,3.42
2022-12-31T10:39:36.365Z,4.10
2022-12-31T10:42:17.886Z,4.03
2022-12-31T10:44:47.212Z,4.38
2022-12-31T10:47:32.421Z,4.35
2022-12-31T10:50:17.664Z,2.13
2022-12-31T10:53:11.810Z,4.30
2022-12-31T10:55:44.000Z,5.72
2022-12-31T10:58:25.587Z,4.47
2022-12-31T11:01:11.890Z,4.90
2022-12-31T11:03:38.383Z,5.60
2022-12-31T11:06:23.567Z,5.38
2022-12-31T11:09:02.235Z,4.28
2022-12-31T11:11:47.850Z,4.40
2022-12-31T11:14:52.715Z,5.70
2022-12-31T11:17:19.004Z,6.47
2022-12-31T11:19:54.077Z,3.70
2022-12-31T11:22:32.594Z,5.05
2022-12-31T11:25:13.662Z,5.00
2022-12-31T11:27:49.261Z,4.05
2022-12-31T11:30:23.543Z,5.20
2022-12-31T11:33:00.886Z,5.13
2022-12-31T11:35:41.525Z,4.18
2022-12-31T11:38:28.947Z,4.10
2022-12-31T11:41:19.335Z,4.32
2022-12-31T11:44:01.035Z,4.20
2022-12-31T11:46:36.598Z,4.90
2022-12-31T11:49:21.681Z,5.63
2022-12-31T11:51:51.129Z,4.40
2022-12-31T11:54:36.229Z,5.15
2022-12-31T11:57:02.500Z,4.55
2022-12-31T11:59:28.964Z,8.05
2022-12-31T12:02:00.532Z,4.53
2022-12-31T12:04:27.306Z,4.50
2022-12-31T12:06:53.692Z,5.07
2022-12-31T12:09:28.334Z,4.60
2022-12-31T12:11:59.098Z,4.93
2022-12-31T12:14:31.692Z,5.35
2022-12-31T12:17:04.269Z,5.50
2022-12-31T12:19:33.512Z,4.75
2022-12-31T12:22:08.769Z,5.43
2022-12-31T12:24:35.099Z,4.20
2022-12-31T12:27:01.394Z,9.32
2022-12-31T12:29:34.480Z,7.88
2022-12-31T12:32:02.796Z,4.85
2022-12-31T12:34:36.430Z,3.65
2022-12-31T12:37:04.062Z,7.57
2022-12-31T12:39:34.371Z,4.82
2022-12-31T12:42:03.555Z,7.18
2022-12-31T12:44:30.494Z,3.60
2022-12-31T12:46:57.316Z,5.07
2022-12-31T12:49:28.463Z,4.07
2022-12-31T12:51:57.845Z,4.85
2022-12-31T12:54:30.288Z,4.47
2022-12-31T12:57:11.773Z,3.83
2022-12-31T12:59:56.937Z,4.45
2022-12-31T13:02:38.587Z,3.40
2022-12-31T13:05:11.095Z,2.67
2022-12-31T13:07:46.585Z,3.38
2022-12-31T13:10:12.914Z,4.13
2022-12-31T13:13:23.436Z,4.40
2022-12-31T13:16:07.514Z,3.45
2022-12-31T13:18:33.871Z,5.50
2022-12-31T13:21:03.223Z,4.05
2022-12-31T13:23:42.896Z,3.22
2022-12-31T13:26:09.207Z,3.13
2022-12-31T13:28:37.248Z,3.15
2022-12-31T13:31:09.584Z,3.05
2022-12-31T13:33:42.830Z,2.70
2022-12-31T13:36:12.898Z,3.67
2022-12-31T13:38:46.049Z,3.78
2022-12-31T13:41:15.455Z,4.80
2022-12-31T13:43:54.678Z,3.42
2022-12-31T13:46:30.217Z,4.25
2022-12-31T13:48:58.225Z,3.97
2022-12-31T13:51:28.008Z,2.42
2022-12-31T13:54:01.753Z,3.13
2022-12-31T13:56:31.392Z,3.13
2022-12-31T13:59:14.014Z,2.00
2022-12-31T14:01:49.840Z,2.30
2022-12-31T14:04:32.130Z,4.35
2022-12-31T14:07:00.746Z,7.53
2022-12-31T14:09:28.795Z,3.63
2022-12-31T14:12:07.160Z,3.55
2022-12-31T14:14:42.251Z,2.80
2022-12-31T14:17:15.109Z,3.08
2022-12-31T14:19:47.579Z,3.50
2022-12-31T14:22:23.623Z,1.83
2022-12-31T14:24:51.122Z,3.08
2022-12-31T14:27:31.984Z,6.82
2022-12-31T14:30:27.795Z,3.58
2022-12-31T14:33:03.315Z,4.10
2022-12-31T14:35:29.783Z,2.63
2022-12-31T14:38:00.155Z,2.03
2022-12-31T14:40:41.669Z,2.63
2022-12-31T14:43:18.660Z,3.60
2022-12-31T14:46:04.069Z,5.38
2022-12-31T14:48:46.085Z,2.05
2022-12-31T14:51:12.856Z,3.15
2022-12-31T14:53:39.201Z,3.15
2022-12-31T14:56:07.083Z,3.78
2022-12-31T14:58:36.354Z,2.88
2022-12-31T15:01:10.123Z,4.78
2022-12-31T15:03:45.413Z,4.68
2022-12-31T15:06:24.727Z,2.65
2022-12-31T15:09:09.489Z,2.65
2022-12-31T15:11:54.695Z,3.15
2022-12-31T15:14:39.352Z,3.10
2022-12-31T15:17:14.705Z,3.75
2022-12-31T15:19:40.974Z,2.70
2022-12-31T15:22:26.172Z,2.95
2022-12-31T15:24:54.761Z,7.38
2022-12-31T15:27:27.745Z,3.65
2022-12-31T15:29:54.124Z,2.75
2022-12-31T15:32:24.932Z,4.18
2022-12-31T15:35:00.407Z,3.67
2022-12-31T15:37:34.818Z,2.67
2022-12-31T15:40:18.501Z,5.15
2022-12-31T15:43:06.158Z,4.88
2022-12-31T15:45:35.131Z,3.15
2022-12-31T15:48:03.009Z,2.42
2022-12-31T15:50:29.633Z,4.70
2022-12-31T15:52:56.690Z,5.60
2022-12-31T15:55:26.287Z,2.45
2022-12-31T15:57:54.385Z,3.72
2022-12-31T16:00:21.889Z,4.53
2022-12-31T16:02:50.420Z,2.50
2022-12-31T16:05:24.620Z,3.13
2022-12-31T16:07:56.187Z,3.13
2022-12-31T16:10:25.009Z,2.00
2022-12-31T16:12:52.418Z,2.72
2022-12-31T16:15:20.598Z,2.92
2022-12-31T16:17:57.076Z,3.33
2022-12-31T16:20:25.569Z,4.57
2022-12-31T16:22:53.106Z,3.30
2022-12-31T16:25:30.554Z,3.03
2022-12-31T16:27:57.532Z,2.38
2022-12-31T16:30:29.126Z,3.10
2022-12-31T16:33:03.085Z,2.92
2022-12-31T16:35:31.060Z,2.33
2022-12-31T16:38:10.087Z,4.15
2022-12-31T16:40:36.465Z,4.88
2022-12-31T16:43:02.830Z,4.00
2022-12-31T16:45:29.873Z,3.28
2022-12-31T16:47:56.667Z,3.67
2022-12-31T16:50:24.048Z,4.93
2022-12-31T16:52:51.419Z,3.42
2022-12-31T16:55:19.536Z,2.13
2022-12-31T16:57:48.948Z,4.82
2022-12-31T17:00:16.373Z,3.58
2022-12-31T17:02:47.579Z,4.45
2022-12-31T17:05:26.185Z,3.90
2022-12-31T17:07:52.838Z,3.80
2022-12-31T17:10:23.560Z,3.35
2022-12-31T17:13:28.225Z,5.35
2022-12-31T17:15:46.854Z,4.57
2022-12-31T17:18:23.743Z,4.70
2022-12-31T17:20:51.289Z,4.38
2022-12-31T17:23:26.780Z,6.47
2022-12-31T17:26:00.604Z,5.72
2022-12-31T17:28:28.842Z,3.83
2022-12-31T17:30:59.492Z,5.95
2022-12-31T17:33:27.123Z,6.53
2022-12-31T17:35:58.103Z,3.67
2022-12-31T17:38:35.865Z,2.78
2022-12-31T17:41:05.420Z,3.80
2022-12-31T17:43:35.200Z,3.20
2022-12-31T17:46:02.593Z,4.57
2022-12-31T17:48:28.948Z,5.13
2022-12-31T17:50:56.729Z,4.07
2022-12-31T17:53:23.500Z,5.90
2022-12-31T17:55:51.092Z,2.85
2022-12-31T17:58:29.932Z,3.80
2022-12-31T18:00:57.899Z,3.47
2022-12-31T18:03:24.515Z,4.35
2022-12-31T18:05:51.192Z,2.60
2022-12-31T18:08:17.555Z,5.65
2022-12-31T18:10:44.300Z,4.20
2022-12-31T18:13:14.553Z,3.92
2022-12-31T18:15:40.877Z,3.13
2022-12-31T18:18:24.894Z,3.05
2022-12-31T18:20:57.546Z,4.95
2022-12-31T18:23:26.369Z,3.45
2022-12-31T18:25:52.703Z,5.70
2022-12-31T18:28:19.078Z,5.85
2022-12-31T18:30:45.941Z,3.42
2022-12-31T18:33:13.279Z,4.82
2022-12-31T18:36:07.726Z,4.45
2022-12-31T18:38:26.623Z,3.97
2022-12-31T18:40:58.402Z,5.40
2022-12-31T18:43:24.811Z,6.05
2022-12-31T18:45:51.384Z,4.10
2022-12-31T18:48:17.885Z,7.45
2022-12-31T18:50:44.718Z,6.22
2022-12-31T18:53:14.395Z,6.47
2022-12-31T18:55:44.124Z,4.55
2022-12-31T18:58:10.796Z,7.60
2022-12-31T19:00:38.046Z,10.98
2022-12-31T19:03:08.282Z,9.38
2022-12-31T19:05:37.330Z,10.63
2022-12-31T19:08:03.841Z,10.98
2022-12-31T19:10:30.345Z,14.57
2022-12-31T19:12:56.707Z,11.85
2022-12-31T19:15:24.951Z,9.93
2022-12-31T19:17:51.480Z,9.95
2022-12-31T19:20:17.821Z,8.13
2022-12-31T19:22:44.170Z,8.73
2022-12-31T19:25:18.207Z,6.65
2022-12-31T19:30:15.278Z,15.73
2022-12-31T19:32:41.601Z,9.88
2022-12-31T19:35:09.059Z,6.18
2022-12-31T19:37:35.371Z,14.90
2022-12-31T19:40:01.699Z,19.35
2022-12-31T19:42:27.997Z,15.23
2022-12-31T19:44:54.280Z,11.25
2022-12-31T19:47:20.614Z,11.15
2022-12-31T19:49:46.965Z,9.50
2022-12-31T19:52:13.253Z,7.38
2022-12-31T19:54:39.557Z,6.82
2022-12-31T19:57:05.887Z,8.63
2022-12-31T19:59:32.194Z,6.65
2022-12-31T20:01:58.665Z,7.18
2022-12-31T20:04:25.076Z,6.68
2022-12-31T20:06:51.380Z,9.18
2022-12-31T20:09:17.708Z,7.95
2022-12-31T20:11:44.085Z,8.77
2022-12-31T20:14:10.695Z,9.05
2022-12-31T20:16:37.192Z,8.80
2022-12-31T20:19:03.723Z,9.95
2022-12-31T20:21:30.075Z,10.43
2022-12-31T20:23:56.588Z,11.05
2022-12-31T20:26:23.663Z,9.43
2022-12-31T20:28:50.827Z,8.27
2022-12-31T20:31:18.944Z,5.25
2022-12-31T20:33:45.494Z,6.82
2022-12-31T20:36:12.969Z,5.75
2022-12-31T20:38:39.312Z,6.75
2022-12-31T20:41:06.669Z,5.40
2022-12-31T20:43:33.817Z,9.40
2022-12-31T20:46:00.419Z,5.53
2022-12-31T20:48:26.947Z,6.07
2022-12-31T20:50:56.661Z,7.18
2022-12-31T20:53:23.266Z,6.95
2022-12-31T20:55:49.600Z,6.57
2022-12-31T20:58:16.046Z,5.53
2022-12-31T21:00:47.037Z,4.40
2022-12-31T21:03:36.785Z,3.65
2022-12-31T21:05:59.878Z,4.65
2022-12-31T21:08:31.128Z,4.13
2022-12-31T21:11:01.068Z,5.80
2022-12-31T21:13:27.426Z,9.18
2022-12-31T21:15:54.971Z,7.65
2022-12-31T21:18:22.176Z,6.57
2022-12-31T21:20:49.747Z,7.55
2022-12-31T21:23:16.392Z,4.85
2022-12-31T21:25:43.209Z,6.63
2022-12-31T21:28:09.897Z,6.95
2022-12-31T21:30:38.258Z,13.93
2022-12-31T21:33:04.815Z,9.80
2022-12-31T21:35:53.265Z,6.25
2022-12-31T21:38:17.722Z,6.13
2022-12-31T21:40:45.049Z,4.70
2022-12-31T21:43:12.004Z,3.90
2022-12-31T21:45:38.383Z,6.07
2022-12-31T21:48:19.896Z,6.90
2022-12-31T21:50:48.577Z,4.70
2022-12-31T21:53:20.197Z,9.15
2022-12-31T21:56:09.750Z,7.55
2022-12-31T21:58:37.143Z,9.30
2022-12-31T22:01:22.482Z,7.15
2022-12-31T22:03:48.969Z,4.10
2022-12-31T22:06:20.290Z,4.90
2022-12-31T22:08:47.639Z,7.57
2022-12-31T22:11:14.516Z,6.50
2022-12-31T22:13:41.254Z,8.88
2022-12-31T22:16:08.116Z,14.75
2022-12-31T22:18:38.485Z,7.32
2022-12-31T22:21:17.399Z,5.97
2022-12-31T22:23:45.277Z,8.82
2022-12-31T22:26:13.490Z,6.07
2022-12-31T22:28:40.665Z,6.40
2022-12-31T22:31:07.861Z,6.60
2022-12-31T22:33:34.210Z,6.35
2022-12-31T22:36:20.925Z,5.00
2022-12-31T22:38:47.829Z,7.93
2022-12-31T22:41:15.790Z,5.78
2022-12-31T22:43:43.401Z,8.93
2022-12-31T22:46:11.306Z,8.38
2022-12-31T22:48:38.169Z,8.25
2022-12-31T22:51:04.672Z,8.73
2022-12-31T22:53:30.983Z,6.28
2022-12-31T22:55:57.376Z,7.75
2022-12-31T22:58:24.553Z,7.47
2022-12-31T23:00:51.265Z,8.65
2022-12-31T23:03:17.776Z,9.07
2022-12-31T23:05:44.122Z,37.63
2022-12-31T23:08:20.679Z,193.18
2022-12-31T23:10:59.658Z,353.30
2022-12-31T23:13:51.387Z,358.35
2022-12-31T23:16:37.214Z,646.63
2022-12-31T23:19:22.520Z,600.90
2022-12-31T23:22:07.760Z,620.08
2022-12-31T23:24:34.207Z,537.13
2022-12-31T23:27:00.507Z,699.35
2022-12-31T23:29:26.873Z,655.97
2022-12-31T23:31:53.462Z,464.83
2022-12-31T23:34:19.852Z,348.92
2022-12-31T23:36:46.187Z,280.80
2022-12-31T23:39:13.467Z,252.38
2022-12-31T23:41:40.036Z,241.85
2022-12-31T23:44:06.524Z,192.15
2022-12-31T23:46:32.903Z,209.30
2022-12-31T23:48:59.259Z,232.05
2022-12-31T23:51:25.702Z,172.55
2022-12-31T23:53:52.018Z,159.02
2022-12-31T23:56:23.282Z,211.63
2022-12-31T23:58:57.256Z,247.70
